Tywyn, United Kingdom
Current Conditions -  °F | °C
As of 3:50 PM on Tuesday 21 Oct 2014 (Local Time) from EGOV Reporting Station
Few Clouds Few Clouds  
Wind Chill: 52°   Ceiling: Unl
Heat Index: 52°   Visibility: 6mi
Dew Point: 41°   Wind: 28mph
Humidity: 67%   Direction: 300°WNW
Pressure: 29.91"   Gusts: 41mph
Location:  52.59°N, 4.09°W
Report Text: EGOV 211450Z 30024G36KT 9999 FEW030TCU 11/05 Q1013 BLU NOSIG
Loading
Personal Weather Stations






























Interactive Weather Map
Tropical Storm Tracking
New forecast layout! Learn more

10-Day Weather Forecast

Advertisements
Track Severe Weather on mobile